sensor_id;sensor_type;location;lat;lon;timestamp;P1;durP1;ratioP1;P2;durP2;ratioP2
32976;SDS011;72327;50.842;4.450;2023-08-31T00:00:42;15.65;;;8.05;;
32976;SDS011;72327;50.842;4.450;2023-08-31T00:03:09;18.02;;;7.90;;
32976;SDS011;72327;50.842;4.450;2023-08-31T00:05:39;17.27;;;8.38;;
32976;SDS011;72327;50.842;4.450;2023-08-31T00:08:08;20.48;;;8.25;;
32976;SDS011;72327;50.842;4.450;2023-08-31T00:10:36;20.08;;;8.40;;
32976;SDS011;72327;50.842;4.450;2023-08-31T00:13:02;19.40;;;9.18;;
32976;SDS011;72327;50.842;4.450;2023-08-31T00:15:28;17.70;;;9.23;;
32976;SDS011;72327;50.842;4.450;2023-08-31T00:18:00;18.13;;;9.80;;
32976;SDS011;72327;50.842;4.450;2023-08-31T00:20:29;18.33;;;10.38;;
32976;SDS011;72327;50.842;4.450;2023-08-31T00:22:56;22.17;;;10.55;;
32976;SDS011;72327;50.842;4.450;2023-08-31T00:25:22;25.75;;;10.73;;
32976;SDS011;72327;50.842;4.450;2023-08-31T00:27:47;25.00;;;10.95;;
32976;SDS011;72327;50.842;4.450;2023-08-31T00:30:13;25.02;;;11.57;;
32976;SDS011;72327;50.842;4.450;2023-08-31T00:32:39;21.10;;;11.00;;
32976;SDS011;72327;50.842;4.450;2023-08-31T00:35:07;26.77;;;12.77;;
32976;SDS011;72327;50.842;4.450;2023-08-31T00:37:33;24.15;;;12.25;;
32976;SDS011;72327;50.842;4.450;2023-08-31T00:39:59;24.20;;;11.88;;
32976;SDS011;72327;50.842;4.450;2023-08-31T00:42:25;21.60;;;12.57;;
32976;SDS011;72327;50.842;4.450;2023-08-31T00:44:51;22.60;;;12.00;;
32976;SDS011;72327;50.842;4.450;2023-08-31T00:47:16;28.92;;;13.88;;
32976;SDS011;72327;50.842;4.450;2023-08-31T00:49:42;28.30;;;11.15;;
32976;SDS011;72327;50.842;4.450;2023-08-31T00:52:08;21.88;;;11.57;;
32976;SDS011;72327;50.842;4.450;2023-08-31T00:54:35;26.90;;;11.52;;
32976;SDS011;72327;50.842;4.450;2023-08-31T00:57:01;22.20;;;11.95;;
32976;SDS011;72327;50.842;4.450;2023-08-31T00:59:28;25.00;;;12.45;;
32976;SDS011;72327;50.842;4.450;2023-08-31T01:05:11;17.45;;;10.25;;
32976;SDS011;72327;50.842;4.450;2023-08-31T01:10:38;21.98;;;12.18;;
32976;SDS011;72327;50.842;4.450;2023-08-31T01:13:14;20.30;;;10.90;;
32976;SDS011;72327;50.842;4.450;2023-08-31T01:15:45;27.27;;;13.50;;
32976;SDS011;72327;50.842;4.450;2023-08-31T01:23:51;24.70;;;12.85;;
32976;SDS011;72327;50.842;4.450;2023-08-31T01:26:18;20.00;;;12.23;;
32976;SDS011;72327;50.842;4.450;2023-08-31T01:28:45;30.55;;;14.38;;
32976;SDS011;72327;50.842;4.450;2023-08-31T01:31:11;27.48;;;14.50;;
32976;SDS011;72327;50.842;4.450;2023-08-31T01:33:37;27.20;;;13.48;;
32976;SDS011;72327;50.842;4.450;2023-08-31T01:36:03;25.40;;;13.35;;
32976;SDS011;72327;50.842;4.450;2023-08-31T01:38:37;25.48;;;12.95;;
32976;SDS011;72327;50.842;4.450;2023-08-31T01:41:09;24.08;;;12.77;;
32976;SDS011;72327;50.842;4.450;2023-08-31T01:46:05;29.42;;;14.00;;
32976;SDS011;72327;50.842;4.450;2023-08-31T01:48:37;24.08;;;13.32;;
32976;SDS011;72327;50.842;4.450;2023-08-31T01:51:04;22.17;;;11.90;;
32976;SDS011;72327;50.842;4.450;2023-08-31T01:53:30;37.95;;;15.57;;
32976;SDS011;72327;50.842;4.450;2023-08-31T01:55:56;28.75;;;14.80;;
32976;SDS011;72327;50.842;4.450;2023-08-31T01:58:21;30.52;;;14.52;;
32976;SDS011;72327;50.842;4.450;2023-08-31T02:00:48;33.55;;;14.13;;
32976;SDS011;72327;50.842;4.450;2023-08-31T02:03:13;26.75;;;13.52;;
32976;SDS011;72327;50.842;4.450;2023-08-31T02:05:39;25.55;;;13.77;;
32976;SDS011;72327;50.842;4.450;2023-08-31T02:08:04;32.00;;;14.73;;
32976;SDS011;72327;50.842;4.450;2023-08-31T02:10:30;33.85;;;14.95;;
32976;SDS011;72327;50.842;4.450;2023-08-31T02:12:56;29.00;;;12.60;;
32976;SDS011;72327;50.842;4.450;2023-08-31T02:15:22;26.10;;;13.02;;
32976;SDS011;72327;50.842;4.450;2023-08-31T02:17:47;29.15;;;15.02;;
32976;SDS011;72327;50.842;4.450;2023-08-31T02:20:13;33.35;;;14.27;;
32976;SDS011;72327;50.842;4.450;2023-08-31T02:22:39;31.83;;;14.13;;
32976;SDS011;72327;50.842;4.450;2023-08-31T02:25:05;29.55;;;13.88;;
32976;SDS011;72327;50.842;4.450;2023-08-31T02:27:31;34.35;;;14.52;;
32976;SDS011;72327;50.842;4.450;2023-08-31T02:29:57;29.92;;;13.20;;
32976;SDS011;72327;50.842;4.450;2023-08-31T02:32:22;31.95;;;14.45;;
32976;SDS011;72327;50.842;4.450;2023-08-31T02:34:49;34.47;;;14.57;;
32976;SDS011;72327;50.842;4.450;2023-08-31T02:37:15;37.58;;;15.27;;
32976;SDS011;72327;50.842;4.450;2023-08-31T02:39:41;27.10;;;14.00;;
32976;SDS011;72327;50.842;4.450;2023-08-31T02:42:06;31.13;;;13.75;;
32976;SDS011;72327;50.842;4.450;2023-08-31T02:44:33;33.53;;;14.07;;
32976;SDS011;72327;50.842;4.450;2023-08-31T02:46:58;38.20;;;15.75;;
32976;SDS011;72327;50.842;4.450;2023-08-31T02:49:24;39.90;;;15.27;;
32976;SDS011;72327;50.842;4.450;2023-08-31T02:51:50;28.50;;;13.68;;
32976;SDS011;72327;50.842;4.450;2023-08-31T02:54:16;33.70;;;14.93;;
32976;SDS011;72327;50.842;4.450;2023-08-31T02:56:41;43.25;;;15.65;;
32976;SDS011;72327;50.842;4.450;2023-08-31T02:59:07;35.17;;;14.82;;
32976;SDS011;72327;50.842;4.450;2023-08-31T03:01:33;32.03;;;15.00;;
32976;SDS011;72327;50.842;4.450;2023-08-31T03:03:58;38.72;;;15.02;;
32976;SDS011;72327;50.842;4.450;2023-08-31T03:06:25;44.75;;;16.23;;
32976;SDS011;72327;50.842;4.450;2023-08-31T03:08:51;37.00;;;14.65;;
32976;SDS011;72327;50.842;4.450;2023-08-31T03:11:16;30.60;;;13.70;;
32976;SDS011;72327;50.842;4.450;2023-08-31T03:13:42;35.00;;;13.95;;
32976;SDS011;72327;50.842;4.450;2023-08-31T03:16:08;24.77;;;11.75;;
32976;SDS011;72327;50.842;4.450;2023-08-31T03:18:33;31.30;;;12.82;;
32976;SDS011;72327;50.842;4.450;2023-08-31T03:20:59;27.50;;;11.93;;
32976;SDS011;72327;50.842;4.450;2023-08-31T03:23:25;30.33;;;12.73;;
32976;SDS011;72327;50.842;4.450;2023-08-31T03:25:51;34.67;;;12.98;;
32976;SDS011;72327;50.842;4.450;2023-08-31T03:28:17;31.10;;;12.50;;
32976;SDS011;72327;50.842;4.450;2023-08-31T03:30:43;31.40;;;12.75;;
32976;SDS011;72327;50.842;4.450;2023-08-31T03:33:10;29.90;;;12.57;;
32976;SDS011;72327;50.842;4.450;2023-08-31T03:35:36;28.05;;;11.50;;
32976;SDS011;72327;50.842;4.450;2023-08-31T03:38:02;26.67;;;12.23;;
32976;SDS011;72327;50.842;4.450;2023-08-31T03:40:28;26.52;;;11.98;;
32976;SDS011;72327;50.842;4.450;2023-08-31T03:42:54;27.63;;;12.07;;
32976;SDS011;72327;50.842;4.450;2023-08-31T03:45:20;29.02;;;12.13;;
32976;SDS011;72327;50.842;4.450;2023-08-31T03:47:46;26.02;;;11.70;;
32976;SDS011;72327;50.842;4.450;2023-08-31T03:50:11;24.13;;;11.38;;
32976;SDS011;72327;50.842;4.450;2023-08-31T03:52:37;34.47;;;12.07;;
32976;SDS011;72327;50.842;4.450;2023-08-31T03:55:06;33.08;;;12.85;;
32976;SDS011;72327;50.842;4.450;2023-08-31T03:57:32;26.50;;;11.88;;
32976;SDS011;72327;50.842;4.450;2023-08-31T03:59:57;27.10;;;11.52;;
32976;SDS011;72327;50.842;4.450;2023-08-31T04:02:23;23.20;;;11.27;;
32976;SDS011;72327;50.842;4.450;2023-08-31T04:04:49;26.83;;;11.80;;
32976;SDS011;72327;50.842;4.450;2023-08-31T04:07:14;30.27;;;11.77;;
32976;SDS011;72327;50.842;4.450;2023-08-31T04:09:41;23.80;;;11.40;;
32976;SDS011;72327;50.842;4.450;2023-08-31T04:12:06;26.92;;;11.60;;
32976;SDS011;72327;50.842;4.450;2023-08-31T04:14:32;28.02;;;12.30;;
32976;SDS011;72327;50.842;4.450;2023-08-31T04:16:57;32.90;;;13.57;;
32976;SDS011;72327;50.842;4.450;2023-08-31T04:19:23;26.77;;;11.68;;
32976;SDS011;72327;50.842;4.450;2023-08-31T04:21:49;29.90;;;11.25;;
32976;SDS011;72327;50.842;4.450;2023-08-31T04:24:14;30.15;;;12.13;;
32976;SDS011;72327;50.842;4.450;2023-08-31T04:26:40;27.30;;;11.40;;
32976;SDS011;72327;50.842;4.450;2023-08-31T04:29:06;29.70;;;11.88;;
32976;SDS011;72327;50.842;4.450;2023-08-31T04:31:32;32.40;;;13.00;;
32976;SDS011;72327;50.842;4.450;2023-08-31T04:33:57;31.40;;;12.43;;
32976;SDS011;72327;50.842;4.450;2023-08-31T04:36:23;35.58;;;14.18;;
32976;SDS011;72327;50.842;4.450;2023-08-31T04:38:50;24.27;;;11.80;;
32976;SDS011;72327;50.842;4.450;2023-08-31T04:41:16;27.40;;;11.93;;
32976;SDS011;72327;50.842;4.450;2023-08-31T04:43:42;35.58;;;12.52;;
32976;SDS011;72327;50.842;4.450;2023-08-31T04:46:08;37.47;;;14.45;;
32976;SDS011;72327;50.842;4.450;2023-08-31T04:48:34;27.98;;;11.75;;
32976;SDS011;72327;50.842;4.450;2023-08-31T04:51:06;26.15;;;12.02;;
32976;SDS011;72327;50.842;4.450;2023-08-31T04:53:51;24.13;;;11.98;;
32976;SDS011;72327;50.842;4.450;2023-08-31T04:56:17;29.08;;;12.27;;
32976;SDS011;72327;50.842;4.450;2023-08-31T04:58:43;26.10;;;12.35;;
32976;SDS011;72327;50.842;4.450;2023-08-31T05:01:08;26.63;;;12.45;;
32976;SDS011;72327;50.842;4.450;2023-08-31T05:03:35;31.38;;;11.77;;
32976;SDS011;72327;50.842;4.450;2023-08-31T05:06:01;28.42;;;11.23;;
32976;SDS011;72327;50.842;4.450;2023-08-31T05:08:29;30.20;;;13.10;;
32976;SDS011;72327;50.842;4.450;2023-08-31T05:10:55;24.55;;;11.55;;
32976;SDS011;72327;50.842;4.450;2023-08-31T05:13:21;30.98;;;12.98;;
32976;SDS011;72327;50.842;4.450;2023-08-31T05:15:46;29.73;;;12.63;;
32976;SDS011;72327;50.842;4.450;2023-08-31T05:18:12;25.08;;;12.50;;
32976;SDS011;72327;50.842;4.450;2023-08-31T05:20:39;30.30;;;12.25;;
32976;SDS011;72327;50.842;4.450;2023-08-31T05:23:10;38.17;;;12.82;;
32976;SDS011;72327;50.842;4.450;2023-08-31T05:25:35;27.55;;;11.48;;
32976;SDS011;72327;50.842;4.450;2023-08-31T05:28:01;32.38;;;12.35;;
32976;SDS011;72327;50.842;4.450;2023-08-31T05:30:28;30.42;;;13.20;;
32976;SDS011;72327;50.842;4.450;2023-08-31T05:32:53;30.50;;;12.65;;
32976;SDS011;72327;50.842;4.450;2023-08-31T05:35:19;22.27;;;11.70;;
32976;SDS011;72327;50.842;4.450;2023-08-31T05:37:45;32.20;;;12.40;;
32976;SDS011;72327;50.842;4.450;2023-08-31T05:40:11;27.98;;;11.77;;
32976;SDS011;72327;50.842;4.450;2023-08-31T05:42:40;31.88;;;12.50;;
32976;SDS011;72327;50.842;4.450;2023-08-31T05:45:10;28.23;;;12.10;;
32976;SDS011;72327;50.842;4.450;2023-08-31T05:47:36;31.23;;;11.57;;
32976;SDS011;72327;50.842;4.450;2023-08-31T05:50:02;39.63;;;13.30;;
32976;SDS011;72327;50.842;4.450;2023-08-31T05:52:28;26.90;;;11.70;;
32976;SDS011;72327;50.842;4.450;2023-08-31T05:54:54;27.70;;;12.35;;
32976;SDS011;72327;50.842;4.450;2023-08-31T05:57:20;28.55;;;11.15;;
32976;SDS011;72327;50.842;4.450;2023-08-31T05:59:47;35.28;;;11.88;;
32976;SDS011;72327;50.842;4.450;2023-08-31T06:02:13;32.38;;;11.35;;
32976;SDS011;72327;50.842;4.450;2023-08-31T06:04:39;35.60;;;10.95;;
32976;SDS011;72327;50.842;4.450;2023-08-31T06:07:09;38.20;;;11.32;;
32976;SDS011;72327;50.842;4.450;2023-08-31T06:09:34;34.30;;;11.27;;
32976;SDS011;72327;50.842;4.450;2023-08-31T06:12:00;42.55;;;12.02;;
32976;SDS011;72327;50.842;4.450;2023-08-31T06:14:26;34.03;;;11.52;;
32976;SDS011;72327;50.842;4.450;2023-08-31T06:16:53;29.05;;;10.75;;
32976;SDS011;72327;50.842;4.450;2023-08-31T06:19:18;34.38;;;9.82;;
32976;SDS011;72327;50.842;4.450;2023-08-31T06:21:44;33.00;;;11.13;;
32976;SDS011;72327;50.842;4.450;2023-08-31T06:24:10;24.77;;;10.13;;
32976;SDS011;72327;50.842;4.450;2023-08-31T06:26:38;26.17;;;8.95;;
32976;SDS011;72327;50.842;4.450;2023-08-31T06:29:04;34.47;;;10.23;;
32976;SDS011;72327;50.842;4.450;2023-08-31T06:31:35;35.35;;;9.45;;
32976;SDS011;72327;50.842;4.450;2023-08-31T06:34:01;33.42;;;9.35;;
32976;SDS011;72327;50.842;4.450;2023-08-31T06:36:31;26.52;;;8.52;;
32976;SDS011;72327;50.842;4.450;2023-08-31T06:39:01;32.20;;;9.35;;
32976;SDS011;72327;50.842;4.450;2023-08-31T06:41:29;38.90;;;9.40;;
32976;SDS011;72327;50.842;4.450;2023-08-31T06:43:55;34.15;;;9.38;;
32976;SDS011;72327;50.842;4.450;2023-08-31T06:46:21;35.78;;;9.20;;
32976;SDS011;72327;50.842;4.450;2023-08-31T06:48:47;30.60;;;8.52;;
32976;SDS011;72327;50.842;4.450;2023-08-31T06:51:21;30.55;;;8.90;;
32976;SDS011;72327;50.842;4.450;2023-08-31T06:53:49;37.30;;;9.55;;
32976;SDS011;72327;50.842;4.450;2023-08-31T06:56:15;30.05;;;9.35;;
32976;SDS011;72327;50.842;4.450;2023-08-31T06:58:46;27.38;;;9.30;;
32976;SDS011;72327;50.842;4.450;2023-08-31T07:01:12;21.95;;;9.05;;
32976;SDS011;72327;50.842;4.450;2023-08-31T07:03:38;24.10;;;8.00;;
32976;SDS011;72327;50.842;4.450;2023-08-31T07:06:04;29.83;;;8.05;;
32976;SDS011;72327;50.842;4.450;2023-08-31T07:08:30;34.00;;;8.68;;
32976;SDS011;72327;50.842;4.450;2023-08-31T07:10:55;38.15;;;8.52;;
32976;SDS011;72327;50.842;4.450;2023-08-31T07:13:24;39.22;;;9.65;;
32976;SDS011;72327;50.842;4.450;2023-08-31T07:15:50;40.35;;;8.82;;
32976;SDS011;72327;50.842;4.450;2023-08-31T07:18:15;45.53;;;8.75;;
32976;SDS011;72327;50.842;4.450;2023-08-31T07:20:45;39.10;;;9.48;;
32976;SDS011;72327;50.842;4.450;2023-08-31T07:23:19;36.78;;;8.93;;
32976;SDS011;72327;50.842;4.450;2023-08-31T07:25:48;27.08;;;7.85;;
32976;SDS011;72327;50.842;4.450;2023-08-31T07:28:14;30.25;;;8.27;;
32976;SDS011;72327;50.842;4.450;2023-08-31T07:30:40;34.28;;;10.82;;
32976;SDS011;72327;50.842;4.450;2023-08-31T07:33:06;35.55;;;8.75;;
32976;SDS011;72327;50.842;4.450;2023-08-31T07:35:33;37.95;;;9.30;;
32976;SDS011;72327;50.842;4.450;2023-08-31T07:37:58;24.75;;;7.97;;
32976;SDS011;72327;50.842;4.450;2023-08-31T07:40:24;30.77;;;9.85;;
32976;SDS011;72327;50.842;4.450;2023-08-31T07:42:51;30.67;;;8.77;;
32976;SDS011;72327;50.842;4.450;2023-08-31T07:45:18;31.50;;;8.55;;
32976;SDS011;72327;50.842;4.450;2023-08-31T07:47:43;30.65;;;9.45;;
32976;SDS011;72327;50.842;4.450;2023-08-31T07:50:09;28.08;;;8.80;;
32976;SDS011;72327;50.842;4.450;2023-08-31T07:52:35;26.63;;;8.80;;
32976;SDS011;72327;50.842;4.450;2023-08-31T07:55:03;24.73;;;8.07;;
32976;SDS011;72327;50.842;4.450;2023-08-31T07:57:29;22.45;;;7.88;;
32976;SDS011;72327;50.842;4.450;2023-08-31T07:59:55;24.67;;;7.68;;
32976;SDS011;72327;50.842;4.450;2023-08-31T08:02:21;25.95;;;8.43;;
32976;SDS011;72327;50.842;4.450;2023-08-31T08:04:47;21.70;;;7.40;;
32976;SDS011;72327;50.842;4.450;2023-08-31T08:07:12;37.97;;;8.98;;
32976;SDS011;72327;50.842;4.450;2023-08-31T08:09:38;23.88;;;8.18;;
32976;SDS011;72327;50.842;4.450;2023-08-31T08:12:04;36.50;;;8.57;;
32976;SDS011;72327;50.842;4.450;2023-08-31T08:14:30;33.47;;;10.48;;
32976;SDS011;72327;50.842;4.450;2023-08-31T08:16:55;33.70;;;8.70;;
32976;SDS011;72327;50.842;4.450;2023-08-31T08:19:22;26.70;;;8.48;;
32976;SDS011;72327;50.842;4.450;2023-08-31T08:21:49;40.47;;;8.13;;
32976;SDS011;72327;50.842;4.450;2023-08-31T08:24:19;24.83;;;8.68;;
32976;SDS011;72327;50.842;4.450;2023-08-31T08:26:46;41.08;;;8.73;;
32976;SDS011;72327;50.842;4.450;2023-08-31T08:29:13;38.58;;;8.68;;
32976;SDS011;72327;50.842;4.450;2023-08-31T08:31:39;30.80;;;7.85;;
32976;SDS011;72327;50.842;4.450;2023-08-31T08:34:08;21.50;;;8.15;;
32976;SDS011;72327;50.842;4.450;2023-08-31T08:36:34;26.67;;;7.78;;
32976;SDS011;72327;50.842;4.450;2023-08-31T08:38:59;25.40;;;7.85;;
32976;SDS011;72327;50.842;4.450;2023-08-31T08:41:25;38.97;;;8.43;;
32976;SDS011;72327;50.842;4.450;2023-08-31T08:43:55;25.92;;;7.68;;
32976;SDS011;72327;50.842;4.450;2023-08-31T08:46:27;22.92;;;7.60;;
32976;SDS011;72327;50.842;4.450;2023-08-31T08:48:56;26.00;;;7.47;;
32976;SDS011;72327;50.842;4.450;2023-08-31T08:51:26;26.50;;;9.95;;
32976;SDS011;72327;50.842;4.450;2023-08-31T08:53:52;21.30;;;7.82;;
32976;SDS011;72327;50.842;4.450;2023-08-31T08:56:19;31.45;;;7.93;;
32976;SDS011;72327;50.842;4.450;2023-08-31T08:58:44;19.92;;;6.70;;
32976;SDS011;72327;50.842;4.450;2023-08-31T09:01:10;16.42;;;6.65;;
32976;SDS011;72327;50.842;4.450;2023-08-31T09:03:36;22.08;;;6.47;;
32976;SDS011;72327;50.842;4.450;2023-08-31T09:06:02;30.45;;;8.23;;
32976;SDS011;72327;50.842;4.450;2023-08-31T09:08:34;27.85;;;7.85;;
32976;SDS011;72327;50.842;4.450;2023-08-31T09:11:02;20.52;;;6.57;;
32976;SDS011;72327;50.842;4.450;2023-08-31T09:13:28;39.50;;;7.47;;
32976;SDS011;72327;50.842;4.450;2023-08-31T09:15:55;19.85;;;7.00;;
32976;SDS011;72327;50.842;4.450;2023-08-31T09:18:29;17.60;;;5.93;;
32976;SDS011;72327;50.842;4.450;2023-08-31T09:20:59;19.30;;;6.15;;
32976;SDS011;72327;50.842;4.450;2023-08-31T09:23:26;19.10;;;5.82;;
32976;SDS011;72327;50.842;4.450;2023-08-31T09:25:55;24.08;;;6.65;;
32976;SDS011;72327;50.842;4.450;2023-08-31T09:28:23;18.45;;;6.50;;
32976;SDS011;72327;50.842;4.450;2023-08-31T09:30:52;24.50;;;6.20;;
32976;SDS011;72327;50.842;4.450;2023-08-31T09:33:19;14.82;;;5.90;;
32976;SDS011;72327;50.842;4.450;2023-08-31T09:35:50;18.98;;;6.22;;
32976;SDS011;72327;50.842;4.450;2023-08-31T09:41:10;16.83;;;5.35;;
32976;SDS011;72327;50.842;4.450;2023-08-31T09:43:47;16.85;;;6.35;;
32976;SDS011;72327;50.842;4.450;2023-08-31T09:46:13;16.25;;;5.80;;
32976;SDS011;72327;50.842;4.450;2023-08-31T09:48:39;16.95;;;4.85;;
32976;SDS011;72327;50.842;4.450;2023-08-31T09:51:07;18.83;;;5.38;;
32976;SDS011;72327;50.842;4.450;2023-08-31T09:53:35;15.25;;;4.82;;
32976;SDS011;72327;50.842;4.450;2023-08-31T09:56:04;18.40;;;5.70;;
32976;SDS011;72327;50.842;4.450;2023-08-31T09:58:31;14.03;;;4.63;;
32976;SDS011;72327;50.842;4.450;2023-08-31T10:00:59;21.05;;;4.82;;
32976;SDS011;72327;50.842;4.450;2023-08-31T10:03:26;21.00;;;4.57;;
32976;SDS011;72327;50.842;4.450;2023-08-31T10:05:52;14.45;;;4.90;;
32976;SDS011;72327;50.842;4.450;2023-08-31T10:08:19;13.48;;;4.53;;
32976;SDS011;72327;50.842;4.450;2023-08-31T10:10:45;15.40;;;4.10;;
32976;SDS011;72327;50.842;4.450;2023-08-31T10:13:16;20.25;;;4.47;;
32976;SDS011;72327;50.842;4.450;2023-08-31T10:15:48;13.77;;;4.55;;
32976;SDS011;72327;50.842;4.450;2023-08-31T10:18:19;15.73;;;4.65;;
32976;SDS011;72327;50.842;4.450;2023-08-31T10:20:46;15.57;;;4.25;;
32976;SDS011;72327;50.842;4.450;2023-08-31T10:23:13;22.50;;;4.55;;
32976;SDS011;72327;50.842;4.450;2023-08-31T10:28:23;15.48;;;4.00;;
32976;SDS011;72327;50.842;4.450;2023-08-31T10:31:02;12.35;;;4.00;;
32976;SDS011;72327;50.842;4.450;2023-08-31T10:33:42;13.00;;;3.80;;
32976;SDS011;72327;50.842;4.450;2023-08-31T10:36:16;12.68;;;3.65;;
32976;SDS011;72327;50.842;4.450;2023-08-31T10:38:47;14.35;;;4.43;;
32976;SDS011;72327;50.842;4.450;2023-08-31T10:41:25;16.70;;;3.78;;
32976;SDS011;72327;50.842;4.450;2023-08-31T10:43:59;11.68;;;3.72;;
32976;SDS011;72327;50.842;4.450;2023-08-31T10:46:43;11.60;;;3.17;;
32976;SDS011;72327;50.842;4.450;2023-08-31T10:49:13;12.25;;;3.42;;
32976;SDS011;72327;50.842;4.450;2023-08-31T10:51:40;17.42;;;3.20;;
32976;SDS011;72327;50.842;4.450;2023-08-31T10:54:12;9.85;;;2.90;;
32976;SDS011;72327;50.842;4.450;2023-08-31T10:59:18;11.95;;;3.03;;
32976;SDS011;72327;50.842;4.450;2023-08-31T11:01:52;7.93;;;3.10;;
32976;SDS011;72327;50.842;4.450;2023-08-31T11:04:19;10.38;;;2.90;;
32976;SDS011;72327;50.842;4.450;2023-08-31T11:09:42;5.90;;;2.45;;
32976;SDS011;72327;50.842;4.450;2023-08-31T11:12:13;11.75;;;2.60;;
32976;SDS011;72327;50.842;4.450;2023-08-31T11:14:42;10.60;;;2.83;;
32976;SDS011;72327;50.842;4.450;2023-08-31T11:17:08;7.43;;;2.40;;
32976;SDS011;72327;50.842;4.450;2023-08-31T11:19:37;10.85;;;2.40;;
32976;SDS011;72327;50.842;4.450;2023-08-31T11:22:03;10.32;;;2.65;;
32976;SDS011;72327;50.842;4.450;2023-08-31T11:24:35;9.35;;;2.38;;
32976;SDS011;72327;50.842;4.450;2023-08-31T11:27:09;9.85;;;3.05;;
32976;SDS011;72327;50.842;4.450;2023-08-31T11:29:45;11.18;;;2.83;;
32976;SDS011;72327;50.842;4.450;2023-08-31T11:32:17;6.65;;;2.45;;
32976;SDS011;72327;50.842;4.450;2023-08-31T11:34:46;16.15;;;3.17;;
32976;SDS011;72327;50.842;4.450;2023-08-31T11:37:13;14.48;;;2.75;;
32976;SDS011;72327;50.842;4.450;2023-08-31T11:39:42;7.45;;;2.47;;
32976;SDS011;72327;50.842;4.450;2023-08-31T11:42:16;14.27;;;3.40;;
32976;SDS011;72327;50.842;4.450;2023-08-31T11:44:45;15.65;;;2.90;;
32976;SDS011;72327;50.842;4.450;2023-08-31T11:47:16;11.80;;;2.78;;
32976;SDS011;72327;50.842;4.450;2023-08-31T11:49:42;10.82;;;2.30;;
32976;SDS011;72327;50.842;4.450;2023-08-31T11:52:10;7.32;;;3.00;;
32976;SDS011;72327;50.842;4.450;2023-08-31T11:54:56;7.63;;;2.13;;
32976;SDS011;72327;50.842;4.450;2023-08-31T11:57:25;10.38;;;2.67;;
32976;SDS011;72327;50.842;4.450;2023-08-31T12:00:12;10.10;;;1.95;;
32976;SDS011;72327;50.842;4.450;2023-08-31T12:02:53;10.60;;;2.20;;
32976;SDS011;72327;50.842;4.450;2023-08-31T12:05:30;6.25;;;2.30;;
32976;SDS011;72327;50.842;4.450;2023-08-31T12:08:11;9.50;;;2.28;;
32976;SDS011;72327;50.842;4.450;2023-08-31T12:10:47;10.95;;;2.15;;
32976;SDS011;72327;50.842;4.450;2023-08-31T12:13:12;11.70;;;2.72;;
32976;SDS011;72327;50.842;4.450;2023-08-31T12:15:40;14.43;;;2.75;;
32976;SDS011;72327;50.842;4.450;2023-08-31T12:18:06;9.45;;;2.85;;
32976;SDS011;72327;50.842;4.450;2023-08-31T12:20:34;9.02;;;2.55;;
32976;SDS011;72327;50.842;4.450;2023-08-31T12:23:07;6.22;;;2.70;;
32976;SDS011;72327;50.842;4.450;2023-08-31T12:25:35;10.07;;;2.78;;
32976;SDS011;72327;50.842;4.450;2023-08-31T12:28:01;11.57;;;2.67;;
32976;SDS011;72327;50.842;4.450;2023-08-31T12:30:28;14.25;;;2.83;;
32976;SDS011;72327;50.842;4.450;2023-08-31T12:32:54;11.50;;;2.65;;
32976;SDS011;72327;50.842;4.450;2023-08-31T12:35:21;10.02;;;1.95;;
32976;SDS011;72327;50.842;4.450;2023-08-31T12:37:58;9.13;;;2.10;;
32976;SDS011;72327;50.842;4.450;2023-08-31T12:40:30;15.45;;;2.80;;
32976;SDS011;72327;50.842;4.450;2023-08-31T12:42:56;11.15;;;2.85;;
32976;SDS011;72327;50.842;4.450;2023-08-31T12:45:21;9.85;;;2.75;;
32976;SDS011;72327;50.842;4.450;2023-08-31T12:47:47;11.13;;;2.85;;
32976;SDS011;72327;50.842;4.450;2023-08-31T12:52:43;12.82;;;2.47;;
32976;SDS011;72327;50.842;4.450;2023-08-31T12:55:14;12.10;;;2.47;;
32976;SDS011;72327;50.842;4.450;2023-08-31T12:57:41;18.90;;;5.07;;
32976;SDS011;72327;50.842;4.450;2023-08-31T13:00:08;10.57;;;2.15;;
32976;SDS011;72327;50.842;4.450;2023-08-31T13:02:39;10.02;;;2.08;;
32976;SDS011;72327;50.842;4.450;2023-08-31T13:05:10;10.73;;;2.80;;
32976;SDS011;72327;50.842;4.450;2023-08-31T13:07:36;7.50;;;2.25;;
32976;SDS011;72327;50.842;4.450;2023-08-31T13:10:07;7.18;;;2.28;;
32976;SDS011;72327;50.842;4.450;2023-08-31T13:12:34;11.98;;;2.28;;
32976;SDS011;72327;50.842;4.450;2023-08-31T13:15:06;34.72;;;3.42;;
32976;SDS011;72327;50.842;4.450;2023-08-31T13:17:34;7.45;;;2.10;;
32976;SDS011;72327;50.842;4.450;2023-08-31T13:20:00;6.72;;;2.20;;
32976;SDS011;72327;50.842;4.450;2023-08-31T13:22:28;14.77;;;3.30;;
32976;SDS011;72327;50.842;4.450;2023-08-31T13:24:59;14.13;;;2.42;;
32976;SDS011;72327;50.842;4.450;2023-08-31T13:27:24;9.45;;;2.33;;
32976;SDS011;72327;50.842;4.450;2023-08-31T13:29:50;8.50;;;2.10;;
32976;SDS011;72327;50.842;4.450;2023-08-31T13:32:19;8.73;;;2.23;;
32976;SDS011;72327;50.842;4.450;2023-08-31T13:34:45;10.75;;;1.92;;
32976;SDS011;72327;50.842;4.450;2023-08-31T13:37:12;7.57;;;1.90;;
32976;SDS011;72327;50.842;4.450;2023-08-31T13:39:38;10.52;;;2.55;;
32976;SDS011;72327;50.842;4.450;2023-08-31T13:42:06;10.02;;;2.30;;
32976;SDS011;72327;50.842;4.450;2023-08-31T13:44:36;9.55;;;2.00;;
32976;SDS011;72327;50.842;4.450;2023-08-31T13:47:02;5.53;;;2.53;;
32976;SDS011;72327;50.842;4.450;2023-08-31T13:49:31;13.60;;;2.38;;
32976;SDS011;72327;50.842;4.450;2023-08-31T13:51:57;10.10;;;2.55;;
32976;SDS011;72327;50.842;4.450;2023-08-31T13:54:23;12.07;;;2.80;;
32976;SDS011;72327;50.842;4.450;2023-08-31T13:56:50;17.42;;;3.33;;
32976;SDS011;72327;50.842;4.450;2023-08-31T13:59:18;9.48;;;2.47;;
32976;SDS011;72327;50.842;4.450;2023-08-31T14:01:44;12.70;;;2.67;;
32976;SDS011;72327;50.842;4.450;2023-08-31T14:04:10;8.77;;;2.65;;
32976;SDS011;72327;50.842;4.450;2023-08-31T14:06:35;5.75;;;2.20;;
32976;SDS011;72327;50.842;4.450;2023-08-31T14:09:26;7.32;;;2.00;;
32976;SDS011;72327;50.842;4.450;2023-08-31T14:12:16;7.78;;;2.38;;
32976;SDS011;72327;50.842;4.450;2023-08-31T14:14:42;10.00;;;2.78;;
32976;SDS011;72327;50.842;4.450;2023-08-31T14:19:42;17.35;;;2.78;;
32976;SDS011;72327;50.842;4.450;2023-08-31T14:22:08;9.00;;;2.70;;
32976;SDS011;72327;50.842;4.450;2023-08-31T14:24:38;11.57;;;2.92;;
32976;SDS011;72327;50.842;4.450;2023-08-31T14:27:06;14.25;;;2.88;;
32976;SDS011;72327;50.842;4.450;2023-08-31T14:29:33;10.57;;;3.63;;
32976;SDS011;72327;50.842;4.450;2023-08-31T14:32:00;14.95;;;3.35;;
32976;SDS011;72327;50.842;4.450;2023-08-31T14:34:49;16.30;;;3.45;;
32976;SDS011;72327;50.842;4.450;2023-08-31T14:37:15;13.75;;;3.30;;
32976;SDS011;72327;50.842;4.450;2023-08-31T14:39:45;16.10;;;3.50;;
32976;SDS011;72327;50.842;4.450;2023-08-31T14:42:28;13.27;;;2.92;;
32976;SDS011;72327;50.842;4.450;2023-08-31T14:47:22;14.43;;;3.05;;
32976;SDS011;72327;50.842;4.450;2023-08-31T14:49:48;13.52;;;3.33;;
32976;SDS011;72327;50.842;4.450;2023-08-31T14:52:14;9.93;;;3.55;;
32976;SDS011;72327;50.842;4.450;2023-08-31T14:54:39;13.60;;;3.53;;
32976;SDS011;72327;50.842;4.450;2023-08-31T14:57:05;8.30;;;2.22;;
32976;SDS011;72327;50.842;4.450;2023-08-31T14:59:31;9.88;;;3.13;;
32976;SDS011;72327;50.842;4.450;2023-08-31T15:01:57;12.95;;;2.90;;
32976;SDS011;72327;50.842;4.450;2023-08-31T15:04:23;15.10;;;3.30;;
32976;SDS011;72327;50.842;4.450;2023-08-31T15:06:48;13.88;;;3.22;;